Terminal Aerodrome Forecast
Issued by NWS Sterling, VA

Current Version | Previous Version | Text Only | Print | Product List | Glossary Off
Versions: 1 2 3 4 5 6 7 8 9 10 11 12 13 14 15 16 17 18 19 20 21 22

223
FTUS41 KLWX 191501 AAA
TAFDCA
TAF AMD
KDCA 191501Z 1915/2012 33011KT P6SM BKN100
     FM191700 30013G20KT P6SM SCT140
     FM192300 31010KT P6SM FEW250
     FM200800 34005KT P6SM FEW200=

USA.gov is the U.S. government's official web portal to all federal, state and local government web resources and services.